Mantua, Ohio
Current Conditions -  °F | °C
As of 4:54 PM on Sunday 21 Dec 2014 (Local Time) from KAKR Reporting Station
Overcast Overcast  
Wind Chill: 26°   Ceiling: 2300
Heat Index: 31°   Visibility: 8mi
Dew Point: 21°   Wind: 5mph
Humidity: 67%   Direction: NA
Pressure: 30.23"   Gusts: NA
Location:  41.28°N, 81.22°W
Report Text: KAKR 212154Z AUTO VRB04KT 8SM OVC023 M01/M06 A3023 RMK AO2 SLP249 T10061061 $
Loading
Personal Weather Stations






























Interactive Weather Map New forecast layout! Learn more

10-Day Weather Forecast

Advertisements
Track Severe Weather on mobile